Time;durP1;ratioP1;P1;durP2;ratioP2;P2;SDS_P1;SDS_P2;PMS_P1;PMS_P2;Temp;Humidity;BMP_temperature;BMP_pressure;BME280_temperature;BME280_humidity;BME280_pressure;Samples;Min_cycle;Max_cycle;Signal;HPM_P1;HPM_P2
2024/01/10 00:00:01;;;;;;;23.20;13.60;;;;;;;;;;5093650;28;20104;-69
2024/01/10 00:02:27;;;;;;;24.23;14.82;;;;;;;;;;5093728;28;20094;-69
2024/01/10 00:04:53;;;;;;;21.85;13.80;;;;;;;;;;5093325;28;20395;-69
2024/01/10 00:07:19;;;;;;;21.25;12.15;;;;;;;;;;5093558;28;20032;-69
2024/01/10 00:09:45;;;;;;;21.13;12.18;;;;;;;;;;5093815;28;20139;-69
2024/01/10 00:12:11;;;;;;;21.65;12.65;;;;;;;;;;5094000;28;20040;-69
2024/01/10 00:14:37;;;;;;;19.65;12.45;;;;;;;;;;5093184;28;20074;-70
2024/01/10 00:17:04;;;;;;;20.60;12.25;;;;;;;;;;5093731;28;20548;-70
2024/01/10 00:19:30;;;;;;;19.33;12.52;;;;;;;;;;5093553;28;20518;-69
2024/01/10 00:21:55;;;;;;;22.00;11.88;;;;;;;;;;5093384;28;20528;-69
2024/01/10 00:24:21;;;;;;;24.92;14.50;;;;;;;;;;5093130;28;20114;-69
2024/01/10 00:26:47;;;;;;;21.27;12.38;;;;;;;;;;5093403;28;20482;-69
2024/01/10 00:29:13;;;;;;;19.83;11.73;;;10.50;1.00;;;;;;5093343;28;20126;-69
2024/01/10 00:31:40;;;;;;;20.83;13.13;;;10.70;1.00;;;;;;5111650;28;20555;-69
2024/01/10 00:34:05;;;;;;;21.85;12.35;;;10.60;1.00;;;;;;5092914;28;20048;-69
2024/01/10 00:36:31;;;;;;;21.20;13.52;;;;;;;;;;5093482;28;20100;-69
2024/01/10 00:38:57;;;;;;;18.52;11.40;;;;;;;;;;5093447;28;20047;-69
2024/01/10 00:41:23;;;;;;;22.70;13.10;;;;;;;;;;5093334;28;20070;-69
2024/01/10 00:43:49;;;;;;;21.38;13.07;;;;;;;;;;5093714;28;20043;-69
2024/01/10 00:46:15;;;;;;;19.67;12.38;;;;;;;;;;5093312;28;20247;-69
2024/01/10 00:48:41;;;;;;;20.90;13.07;;;;;;;;;;5076608;28;20039;-69
2024/01/10 00:51:08;;;;;;;27.27;13.98;;;;;;;;;;5093319;28;20511;-69
2024/01/10 00:53:40;;;;;;;22.90;12.35;;;;;;;;;;5076578;28;20050;-69
2024/01/10 00:56:06;;;;;;;23.98;13.32;;;10.50;1.00;;;;;;5093084;28;20046;-69
2024/01/10 00:58:32;;;;;;;23.90;13.45;;;10.40;1.00;;;;;;5111570;28;20411;-69
2024/01/10 01:00:58;;;;;;;22.10;13.77;;;;;;;;;;5093210;28;20046;-69
2024/01/10 01:03:24;;;;;;;26.45;14.85;;;;;;;;;;5093175;28;20503;-69
2024/01/10 01:05:50;;;;;;;25.75;14.18;;;;;;;;;;5093327;28;20082;-69
2024/01/10 01:08:16;;;;;;;23.00;14.98;;;;;;;;;;5080263;28;20077;-70
2024/01/10 01:10:42;;;;;;;19.45;12.35;;;;;;;;;;5098080;28;20036;-69
2024/01/10 01:13:07;;;;;;;35.72;16.05;;;10.50;1.00;;;;;;5098561;28;20048;-69
2024/01/10 01:15:33;;;;;;;31.98;16.38;;;;;;;;;;5116022;28;20046;-69
2024/01/10 01:17:59;;;;;;;22.17;13.02;;;;;;;;;;5096704;28;20567;-69
2024/01/10 01:20:25;;;;;;;23.67;12.85;;;10.30;1.00;;;;;;5096868;28;20268;-70
2024/01/10 01:22:51;;;;;;;21.63;12.05;;;;;;;;;;5096621;28;20111;-69
2024/01/10 01:25:17;;;;;;;25.83;14.35;;;;;;;;;;5095975;28;20410;-70
2024/01/10 01:27:43;;;;;;;25.33;14.50;;;;;;;;;;5096325;28;20118;-69
2024/01/10 01:30:11;;;;;;;24.08;14.20;;;;;;;;;;5114322;28;20031;-69
2024/01/10 01:32:37;;;;;;;22.75;14.27;;;;;;;;;;5096088;28;20043;-69
2024/01/10 01:35:03;;;;;;;22.88;13.38;;;;;;;;;;5095801;28;20540;-69
2024/01/10 01:37:29;;;;;;;27.88;15.30;;;;;;;;;;5096117;28;20085;-69
2024/01/10 01:39:55;;;;;;;25.08;14.15;;;10.30;1.00;;;;;;5096492;28;20074;-69
2024/01/10 01:42:20;;;;;;;24.17;14.57;;;10.20;1.00;;;;;;5096102;28;20050;-69
2024/01/10 01:44:46;;;;;;;22.20;13.63;;;10.30;1.00;;;;;;5095935;28;20047;-69
2024/01/10 01:47:12;;;;;;;25.80;15.27;;;;;;;;;;5114632;28;20546;-69
2024/01/10 01:49:38;;;;;;;25.17;16.15;;;;;;;;;;5100525;28;20067;-69
2024/01/10 01:52:05;;;;;;;27.08;16.88;;;;;;;;;;5096225;28;20542;-69
2024/01/10 01:54:32;;;;;;;26.38;15.30;;;10.30;1.00;;;;;;5078481;28;20047;-69
2024/01/10 01:56:58;;;;;;;26.77;15.40;;;;;;;;;;5096036;28;20035;-71
2024/01/10 01:59:25;;;;;;;29.85;16.55;;;;;;;;;;5096072;28;20051;-69
2024/01/10 02:01:54;;;;;;;28.92;15.93;;;10.30;1.00;;;;;;5095584;28;20127;-69
2024/01/10 02:04:20;;;;;;;25.88;14.85;;;;;;;;;;5095589;28;20036;-69
2024/01/10 02:06:46;;;;;;;27.75;15.00;;;;;;;;;;5113774;28;20043;-69
2024/01/10 02:09:12;;;;;;;28.77;16.58;;;10.40;1.00;;;;;;5113892;28;20503;-70
2024/01/10 02:11:39;;;;;;;28.25;16.55;;;;;;;;;;5095908;28;20036;-70
2024/01/10 02:14:05;;;;;;;31.00;17.10;;;10.20;1.00;;;;;;5095293;28;20118;-69
2024/01/10 02:16:31;;;;;;;26.35;15.88;;;;;;;;;;5113736;28;20071;-69
2024/01/10 02:18:57;;;;;;;30.33;16.75;;;;;;;;;;5094516;28;20082;-70
2024/01/10 02:21:23;;;;;;;28.65;16.63;;;;;;;;;;5095233;28;20075;-69
2024/01/10 02:23:49;;;;;;;25.45;15.95;;;;;;;;;;5095150;28;20616;-69
2024/01/10 02:26:16;;;;;;;25.65;14.25;;;;;;;;;;5095494;28;20605;-69
2024/01/10 02:28:42;;;;;;;22.80;14.95;;;;;;;;;;5095552;28;20084;-69
2024/01/10 02:31:08;;;;;;;30.38;15.63;;;;;;;;;;5095169;28;20040;-70
2024/01/10 02:33:34;;;;;;;25.40;14.85;;;;;;;;;;5095268;28;20046;-69
2024/01/10 02:36:00;;;;;;;28.70;16.30;;;;;;;;;;5094381;28;20043;-69
2024/01/10 02:38:26;;;;;;;25.98;14.85;;;;;;;;;;5095057;28;20100;-70
2024/01/10 02:40:53;;;;;;;25.70;15.80;;;;;;;;;;5113281;28;20399;-69
2024/01/10 02:43:19;;;;;;;24.52;13.65;;;10.60;1.00;;;;;;5095116;28;20046;-70
2024/01/10 02:45:45;;;;;;;25.30;15.48;;;;;;;;;;5094432;28;20040;-70
2024/01/10 02:48:11;;;;;;;25.85;14.90;;;;;;;;;;5095134;28;20042;-70
2024/01/10 02:50:38;;;;;;;28.30;15.70;;;;;;;;;;5094878;28;20039;-69
2024/01/10 02:53:04;;;;;;;27.20;15.73;;;10.60;1.00;;;;;;5078028;28;20044;-69
2024/01/10 02:55:29;;;;;;;25.30;14.25;;;10.60;1.00;;;;;;5096805;28;20517;-70
2024/01/10 02:57:55;;;;;;;29.15;16.83;;;;;;;;;;5097650;28;20478;-69
2024/01/10 03:00:21;;;;;;;27.50;16.13;;;;;;;;;;5094904;28;20054;-69
2024/01/10 03:02:47;;;;;;;38.83;19.30;;;;;;;;;;5094568;28;20123;-69
2024/01/10 03:05:13;;;;;;;31.27;17.08;;;;;;;;;;5077101;28;20031;-69
2024/01/10 03:07:39;;;;;;;24.85;14.52;;;;;;;;;;5094439;28;20482;-69
2024/01/10 03:10:05;;;;;;;23.58;14.07;;;;;;;;;;5077833;28;20043;-69
2024/01/10 03:12:31;;;;;;;30.17;16.58;;;;;;;;;;5094436;28;20068;-68
2024/01/10 03:14:57;;;;;;;30.40;16.05;;;10.60;1.00;;;;;;5094137;28;20039;-69
2024/01/10 03:17:23;;;;;;;23.65;14.18;;;;;;;;;;5094238;28;20071;-69
2024/01/10 03:19:48;;;;;;;25.60;15.52;;;10.60;1.00;;;;;;5094632;28;20046;-69
2024/01/10 03:22:14;;;;;;;25.00;13.75;;;;;;;;;;5094042;28;20047;-69
2024/01/10 03:24:40;;;;;;;23.52;13.70;;;;;;;;;;5094107;28;20043;-69
2024/01/10 03:27:07;;;;;;;26.10;14.35;;;;;;;;;;5093962;28;20172;-69
2024/01/10 03:29:33;;;;;;;26.08;15.40;;;;;;;;;;5094189;28;20074;-69
2024/01/10 03:31:59;;;;;;;33.00;16.33;;;;;;;;;;5094273;28;20039;-69
2024/01/10 03:34:25;;;;;;;24.75;15.55;;;;;;;;;;5093720;28;20122;-69
2024/01/10 03:36:51;;;;;;;24.13;13.68;;;;;;;;;;5093913;28;20039;-69
2024/01/10 03:39:17;;;;;;;28.17;15.73;;;;;;;;;;5094139;28;20081;-69
2024/01/10 03:41:43;;;;;;;24.50;15.25;;;;;;;;;;5093887;28;20148;-69
2024/01/10 03:44:08;;;;;;;26.42;15.45;;;10.50;1.00;;;;;;5076595;28;20039;-69
2024/01/10 03:46:34;;;;;;;26.38;13.95;;;10.50;1.00;;;;;;5077025;28;20081;-69
2024/01/10 03:49:00;;;;;;;26.85;16.13;;;;;;;;;;5077134;28;20035;-69
2024/01/10 03:51:26;;;;;;;26.45;16.45;;;;;;;;;;5094144;28;20470;-70
2024/01/10 03:53:53;;;;;;;23.70;14.43;;;;;;;;;;5111699;28;20448;-69
2024/01/10 03:56:19;;;;;;;31.65;17.48;;;10.50;1.00;;;;;;5077035;28;20035;-70
2024/01/10 03:58:44;;;;;;;27.98;15.80;;;10.50;1.00;;;;;;5077075;28;20038;-68
2024/01/10 04:01:10;;;;;;;26.45;16.77;;;;;;;;;;5093998;28;20045;-70
2024/01/10 04:03:38;;;;;;;28.88;15.73;;;;;;;;;;5093267;28;20054;-69
2024/01/10 04:06:04;;;;;;;27.83;15.85;;;;;;;;;;5097169;28;20047;-69
2024/01/10 04:08:30;;;;;;;26.23;15.63;;;;;;;;;;5093850;28;20491;-70
2024/01/10 04:10:56;;;;;;;28.00;14.88;;;;;;;;;;5093720;28;20097;-69
2024/01/10 04:13:21;;;;;;;24.42;15.00;;;10.50;1.00;;;;;;5093773;28;20039;-69
2024/01/10 04:15:47;;;;;;;26.80;15.77;;;10.50;1.00;;;;;;5093076;28;20035;-70
2024/01/10 04:18:13;;;;;;;25.20;15.98;;;;;;;;;;5093450;28;20039;-69
2024/01/10 04:20:39;;;;;;;29.05;17.30;;;;;;;;;;5093498;28;20562;-69
2024/01/10 04:23:05;;;;;;;30.63;17.17;;;;;;;;;;5103281;22;20045;-72
2024/01/10 04:25:31;;;;;;;27.15;16.13;;;;;;;;;;5052687;28;20127;-74
2024/01/10 04:27:57;;;;;;;25.85;15.77;;;;;;;;;;5053131;28;20488;-74
2024/01/10 04:30:23;;;;;;;23.63;14.15;;;;;;;;;;5053185;28;20048;-71
2024/01/10 04:32:49;;;;;;;29.00;17.52;;;;;;;;;;5053068;28;20103;-74
2024/01/10 04:35:15;;;;;;;24.25;14.88;;;;;;;;;;5036051;28;20045;-71
2024/01/10 04:37:41;;;;;;;28.45;16.52;;;;;;;;;;5053258;28;20476;-73
2024/01/10 04:40:07;;;;;;;26.35;14.90;;;;;;;;;;5036676;28;20068;-69
2024/01/10 04:42:33;;;;;;;24.25;15.50;;;;;;;;;;5041229;28;20059;-71
2024/01/10 04:44:59;;;;;;;26.75;16.00;;;;;;;;;;5036229;28;20041;-71
2024/01/10 04:47:25;;;;;;;25.70;15.63;;;;;;;;;;5019845;28;20087;-71
2024/01/10 04:49:51;;;;;;;22.00;14.50;;;10.50;1.00;;;;;;5036758;28;20064;-71
2024/01/10 04:52:17;;;;;;;23.08;14.52;;;;;;;;;;5036830;28;20076;-71
2024/01/10 04:54:43;;;;;;;24.30;14.77;;;;;;;;;;5036253;28;20040;-71
2024/01/10 04:57:09;;;;;;;25.98;13.85;;;;;;;;;;5036772;28;20098;-71
2024/01/10 04:59:35;;;;;;;25.83;14.85;;;;;;;;;;5036644;28;20501;-71
2024/01/10 05:02:01;;;;;;;27.30;15.35;;;;;;;;;;5036454;28;20142;-70
2024/01/10 05:04:27;;;;;;;24.73;15.63;;;;;;;;;;5035809;28;20104;-71
2024/01/10 05:06:53;;;;;;;23.25;14.18;;;;;;;;;;5036356;28;20040;-72
2024/01/10 05:09:19;;;;;;;22.63;14.73;;;;;;;;;;5020249;28;20037;-72
2024/01/10 05:11:48;;;;;;;27.95;15.00;;;;;;;;;;5036594;28;20503;-73
2024/01/10 05:14:14;;;;;;;27.52;14.98;;;;;;;;;;5039247;28;20048;-72
2024/01/10 05:16:40;;;;;;;24.42;14.52;;;;;;;;;;5038312;28;20048;-71
2024/01/10 05:19:06;;;;;;;26.73;15.75;;;;;;;;;;5036425;28;20044;-71
2024/01/10 05:21:32;;;;;;;28.15;15.20;;;10.40;1.00;;;;;;5036133;28;20048;-72
2024/01/10 05:23:58;;;;;;;21.83;13.18;;;;;;;;;;5053576;28;20068;-71
2024/01/10 05:26:24;;;;;;;20.25;12.73;;;;;;;;;;5040411;28;20428;-71
2024/01/10 05:28:50;;;;;;;21.52;12.45;;;;;;;;;;5056017;28;20047;-71
2024/01/10 05:31:16;;;;;;;25.73;14.35;;;;;;;;;;5055182;28;20074;-71
2024/01/10 05:33:42;;;;;;;28.77;15.50;;;;;;;;;;5055435;28;20532;-72
2024/01/10 05:36:11;;;;;;;28.30;14.88;;;;;;;;;;5055899;28;20044;-74
2024/01/10 05:38:37;;;;;;;23.08;13.15;;;;;;;;;;5039479;28;20049;-71
2024/01/10 05:41:03;;;;;;;24.67;13.63;;;;;;;;;;5055848;28;20048;-70
2024/01/10 05:43:29;;;;;;;23.92;13.25;;;;;;;;;;5055476;28;20072;-71
2024/01/10 05:45:55;;;;;;;24.83;14.68;;;;;;;;;;5054811;28;20079;-71
2024/01/10 05:48:21;;;;;;;25.05;14.02;;;10.30;1.00;;;;;;5055574;28;20032;-71
2024/01/10 05:50:47;;;;;;;20.75;13.25;;;;;;;;;;5038779;28;20412;-73
2024/01/10 05:53:16;;;;;;;19.95;12.48;;;;;;;;;;5055325;28;20048;-74
2024/01/10 05:55:42;;;;;;;25.70;12.93;;;;;;;;;;5038288;28;20158;-71
2024/01/10 05:58:09;;;;;;;22.48;13.77;;;;;;;;;;5055488;28;20044;-70
2024/01/10 06:00:35;;;;;;;24.45;13.88;;;;;;;;;;5055284;28;20818;-70
2024/01/10 06:03:01;;;;;;;25.83;15.00;;;;;;;;;;5054005;28;20094;-71
2024/01/10 06:05:27;;;;;;;27.45;15.13;;;;;;;;;;5037953;28;20817;-71
2024/01/10 06:07:53;;;;;;;22.45;14.05;;;;;;;;;;5052327;28;20041;-71
2024/01/10 06:10:19;;;;;;;27.20;13.63;;;10.30;1.00;;;;;;5055075;28;20055;-71
2024/01/10 06:12:45;;;;;;;23.60;12.55;;;;;;;;;;5054230;28;20527;-71
2024/01/10 06:15:11;;;;;;;22.90;13.68;;;;;;;;;;5037698;28;20056;-71
2024/01/10 06:17:37;;;;;;;20.80;12.93;;;10.30;1.00;;;;;;5054804;28;20045;-70
2024/01/10 06:20:04;;;;;;;30.73;15.20;;;10.30;1.00;;;;;;5054849;28;20040;-69
2024/01/10 06:22:30;;;;;;;27.92;14.30;;;;;;;;;;5038152;28;20446;-71
2024/01/10 06:24:56;;;;;;;28.77;15.18;;;10.30;1.00;;;;;;5037658;28;20048;-71
2024/01/10 06:27:21;;;;;;;23.95;14.63;;;10.20;1.00;;;;;;5054021;28;20075;-71
2024/01/10 06:29:47;;;;;;;23.90;14.25;;;;;;;;;;5055459;28;20048;-71
2024/01/10 06:32:14;;;;;;;24.45;14.40;;;;;;;;;;5055141;28;20059;-72
2024/01/10 06:34:40;;;;;;;25.55;14.70;;;10.20;1.00;;;;;;5054467;28;20048;-70
2024/01/10 06:37:07;;;;;;;23.73;14.05;;;;;;;;;;5054997;28;20048;-71
2024/01/10 06:39:33;;;;;;;23.08;13.75;;;;;;;;;;5055161;28;20415;-71
2024/01/10 06:41:59;;;;;;;24.08;14.48;;;;;;;;;;5038258;28;20488;-71
2024/01/10 06:44:27;;;;;;;25.27;15.05;;;;;;;;;;5054233;28;20097;-71
2024/01/10 06:46:53;;;;;;;25.13;14.27;;;;;;;;;;5038055;28;20047;-71
2024/01/10 06:49:19;;;;;;;22.73;14.07;;;;;;;;;;5056467;28;20041;-71
2024/01/10 06:51:45;;;;;;;26.17;15.80;;;;;;;;;;5053181;28;20342;-72
2024/01/10 06:54:11;;;;;;;30.60;15.70;;;10.30;1.00;;;;;;5032136;28;20135;-70
2024/01/10 06:56:37;;;;;;;24.67;15.88;;;;;;;;;;5023664;28;20052;-68
2024/01/10 06:59:03;;;;;;;25.95;14.10;;;;;;;;;;5045625;28;20051;-71
2024/01/10 07:01:29;;;;;;;25.73;14.52;;;;;;;;;;5038812;28;20496;-71
2024/01/10 07:03:55;;;;;;;23.33;14.38;;;;;;;;;;5023097;28;20043;-72
2024/01/10 07:06:22;;;;;;;23.98;14.30;;;;;;;;;;5033756;28;20150;-72
2024/01/10 07:08:49;;;;;;;30.05;15.38;;;;;;;;;;5027012;28;20115;-71
2024/01/10 07:11:15;;;;;;;23.30;14.02;;;;;;;;;;5022858;28;20087;-73
2024/01/10 07:13:41;;;;;;;22.98;13.63;;;;;;;;;;5019529;28;20045;-70
2024/01/10 07:16:08;;;;;;;24.48;14.07;;;;;;;;;;5037826;28;20040;-72
2024/01/10 07:18:34;;;;;;;26.85;15.07;;;;;;;;;;5030637;28;20041;-69
2024/01/10 07:21:00;;;;;;;25.13;15.05;;;10.30;1.00;;;;;;5038142;28;20051;-70
2024/01/10 07:23:26;;;;;;;24.25;15.18;;;;;;;;;;5044007;28;20116;-72
2024/01/10 07:25:52;;;;;;;25.92;15.07;;;;;;;;;;5019010;28;20056;-74
2024/01/10 07:28:19;;;;;;;23.88;15.07;;;;;;;;;;5069778;28;20037;-74
2024/01/10 07:30:45;;;;;;;24.00;14.52;;;;;;;;;;5018820;28;20116;-72
2024/01/10 07:33:11;;;;;;;24.98;15.10;;;;;;;;;;5040587;28;20052;-73
2024/01/10 07:35:38;;;;;;;25.45;15.90;;;;;;;;;;5041385;28;20462;-72
2024/01/10 07:38:07;;;;;;;26.90;16.23;;;10.30;1.00;;;;;;5053511;28;20428;-73
2024/01/10 07:40:33;;;;;;;30.10;16.73;;;;;;;;;;5036382;28;20408;-73
2024/01/10 07:42:59;;;;;;;29.65;16.73;;;;;;;;;;5053253;28;20082;-73
2024/01/10 07:45:25;;;;;;;28.73;17.05;;;;;;;;;;5053342;28;20048;-73
2024/01/10 07:47:51;;;;;;;32.80;18.02;;;;;;;;;;5053507;28;20559;-72
2024/01/10 07:50:17;;;;;;;28.65;17.17;;;10.40;1.00;;;;;;5053702;28;20044;-73
2024/01/10 07:52:43;;;;;;;28.38;16.15;;;;;;;;;;5037237;28;20469;-73
2024/01/10 07:55:09;;;;;;;26.73;17.00;;;;;;;;;;5053304;28;20190;-73
2024/01/10 07:57:39;;;;;;;26.77;16.23;;;;;;;;;;5037192;28;20040;-73
2024/01/10 08:00:10;;;;;;;27.60;15.38;;;10.30;1.00;;;;;;5053641;28;20040;-73
2024/01/10 08:02:36;;;;;;;26.63;16.58;;;;;;;;;;5052960;28;20044;-73
2024/01/10 08:05:08;;;;;;;30.45;16.15;;;10.20;1.00;;;;;;5052940;28;20045;-73
2024/01/10 08:07:34;;;;;;;27.65;16.25;;;;;;;;;;5036861;28;20079;-72
2024/01/10 08:10:00;;;;;;;29.38;17.30;;;;;;;;;;5036908;28;20075;-72
2024/01/10 08:12:26;;;;;;;29.00;16.40;;;;;;;;;;5036703;28;20048;-72
2024/01/10 08:14:52;;;;;;;26.90;15.70;;;;;;;;;;5036193;28;20071;-72
2024/01/10 08:17:19;;;;;;;24.73;15.48;;;10.10;1.00;;;;;;5056640;28;20080;-72
2024/01/10 08:19:45;;;;;;;25.65;15.82;;;;;;;;;;5040806;28;20158;-72
2024/01/10 08:22:13;;;;;;;25.85;16.38;;;;;;;;;;5057302;28;20101;-71
2024/01/10 08:24:38;;;;;;;26.48;15.68;;;10.30;1.00;;;;;;5056741;28;20052;-71
2024/01/10 08:27:04;;;;;;;26.63;14.05;;;;;;;;;;5057547;28;20063;-71
2024/01/10 08:29:31;;;;;;;23.67;14.20;;;;;;;;;;5057348;28;20036;-72
2024/01/10 08:31:57;;;;;;;23.70;14.85;;;;;;;;;;5040709;28;20145;-71
2024/01/10 08:34:23;;;;;;;26.38;15.10;;;10.40;1.00;;;;;;5055669;28;20155;-73
2024/01/10 08:36:53;;;;;;;29.08;16.20;;;;;;;;;;5040762;28;20500;-72
2024/01/10 08:39:19;;;;;;;26.77;14.63;;;;;;;;;;5057094;28;20045;-72
2024/01/10 08:41:45;;;;;;;23.60;14.05;;;;;;;;;;5056895;28;20044;-74
2024/01/10 08:44:11;;;;;;;25.00;14.73;;;;;;;;;;5056439;28;20047;-76
2024/01/10 08:46:37;;;;;;;24.67;14.10;;;;;;;;;;5056780;28;20041;-75
2024/01/10 08:49:03;;;;;;;25.70;14.43;;;;;;;;;;5040705;28;20060;-76
2024/01/10 08:51:30;;;;;;;25.08;14.27;;;;;;;;;;5057310;28;20045;-76
2024/01/10 08:53:56;;;;;;;27.20;15.27;;;;;;;;;;5039178;28;20044;-73
2024/01/10 08:56:22;;;;;;;22.73;13.70;;;;;;;;;;5056355;28;20098;-73
2024/01/10 08:58:48;;;;;;;26.23;14.70;;;;;;;;;;5051777;28;20078;-73
2024/01/10 09:01:14;;;;;;;25.65;15.27;;;;;;;;;;5045190;28;20459;-73
2024/01/10 09:03:41;;;;;;;28.50;15.30;;;;;;;;;;5038104;28;20045;-73
2024/01/10 09:06:09;;;;;;;24.13;14.13;;;;;;;;;;5056250;28;20071;-72
2024/01/10 09:08:36;;;;;;;26.48;14.63;;;;;;;;;;5056389;28;20539;-72
2024/01/10 09:11:03;;;;;;;28.35;13.65;;;;;;;;;;5056703;28;20052;-75
2024/01/10 09:13:29;;;;;;;22.08;13.00;;;;;;;;;;5039907;28;20048;-72
2024/01/10 09:15:55;;;;;;;23.27;12.48;;;;;;;;;;5052973;28;20041;-73
2024/01/10 09:18:21;;;;;;;23.02;12.48;;;;;;;;;;5036141;28;20528;-73
2024/01/10 09:20:48;;;;;;;28.67;14.07;;;;;;;;;;5019552;28;20050;-73
2024/01/10 09:23:14;;;;;;;30.50;15.00;;;;;;;;;;5019469;28;20493;-72
2024/01/10 09:25:40;;;;;;;24.98;13.40;;;;;;;;;;5038124;28;20050;-73
2024/01/10 09:28:07;;;;;;;38.70;18.27;;;;;;;;;;5055159;28;20036;-72
2024/01/10 09:30:33;;;;;;;27.90;14.57;;;;;;;;;;5039297;28;20094;-75
2024/01/10 09:33:00;;;;;;;27.58;15.95;;;;;;;;;;5055529;28;20049;-73
2024/01/10 09:35:26;;;;;;;26.80;14.02;;;;;;;;;;5055008;28;20072;-72
2024/01/10 09:37:53;;;;;;;30.40;13.20;;;;;;;;;;5055298;28;20040;-73
2024/01/10 09:40:21;;;;;;;23.73;12.38;;;;;;;;;;5055630;28;20491;-72
2024/01/10 09:42:50;;;;;;;21.10;12.18;;;11.20;1.00;;;;;;5052695;28;20078;-73
2024/01/10 09:45:18;;;;;;;24.67;12.75;;;11.20;1.00;;;;;;5039410;28;20376;-73
2024/01/10 09:47:49;;;;;;;25.58;13.10;;;11.30;1.00;;;;;;5055830;28;20047;-73
2024/01/10 09:50:15;;;;;;;22.60;12.52;;;11.10;1.00;;;;;;5055795;28;20037;-72
2024/01/10 09:52:42;;;;;;;23.45;11.95;;;;;;;;;;5050637;28;20037;-72
2024/01/10 09:55:09;;;;;;;25.60;13.65;;;11.30;1.00;;;;;;5034975;28;20045;-75
2024/01/10 09:57:36;;;;;;;27.73;14.93;;;;;;;;;;5018993;28;20389;-73
2024/01/10 10:00:04;;;;;;;24.90;14.07;;;;;;;;;;5035704;28;20051;-72
2024/01/10 10:02:32;;;;;;;24.35;13.73;;;11.50;1.00;;;;;;5035602;28;20041;-72
2024/01/10 10:05:18;;;;;;;24.20;13.20;;;11.40;1.00;;;;;;5028190;28;20121;-70
2024/01/10 10:07:45;;;;;;;26.23;13.43;;;;;;;;;;5034700;28;20052;-72
2024/01/10 10:10:12;;;;;;;23.05;12.70;;;;;;;;;;5018873;28;20041;-72
2024/01/10 10:12:48;;;;;;;23.85;13.02;;;11.50;1.00;;;;;;5035247;28;20506;-70
2024/01/10 10:15:16;;;;;;;27.25;13.15;;;;;;;;;;5034696;28;20412;-72
2024/01/10 10:17:47;;;;;;;25.38;13.23;;;11.40;1.00;;;;;;5033388;28;20456;-73
2024/01/10 10:20:14;;;;;;;30.77;14.23;;;;;;;;;;5055223;28;20037;-71
2024/01/10 10:25:06;;;;;;;24.33;13.18;;;;;;;;;;5119084;22;20212;-70
2024/01/10 10:27:32;;;;;;;27.23;13.77;;;;;;;;;;5074487;28;20056;-70
2024/01/10 10:29:58;;;;;;;25.05;13.38;;;;;;;;;;5085848;28;20084;-71
2024/01/10 10:32:24;;;;;;;25.85;13.50;;;;;;;;;;5067388;28;20130;-71
2024/01/10 10:34:50;;;;;;;23.88;12.50;;;;;;;;;;5049570;28;20040;-71
2024/01/10 10:37:16;;;;;;;20.08;11.77;;;;;;;;;;5045981;28;20076;-72
2024/01/10 10:39:42;;;;;;;23.60;12.55;;;;;;;;;;5062948;28;20090;-71
2024/01/10 10:42:08;;;;;;;22.50;10.85;;;;;;;;;;5065960;28;20123;-70
2024/01/10 10:44:36;;;;;;;21.27;11.00;;;;;;;;;;5075828;28;20120;-71
2024/01/10 10:47:05;;;;;;;21.92;11.00;;;;;;;;;;5060424;28;20029;-71
2024/01/10 10:49:32;;;;;;;25.15;10.95;;;12.00;1.00;;;;;;5064602;28;20038;-70
2024/01/10 10:52:00;;;;;;;19.80;10.45;;;;;;;;;;5064999;28;20043;-71
2024/01/10 10:54:32;;;;;;;17.02;9.07;;;;;;;;;;5065921;28;20416;-71
2024/01/10 10:56:58;;;;;;;20.45;9.38;;;;;;;;;;5062984;28;20086;-71
2024/01/10 10:59:26;;;;;;;20.08;9.52;;;12.00;1.00;;;;;;5064472;28;20090;-70
2024/01/10 11:01:52;;;;;;;23.10;10.07;;;;;;;;;;5047794;28;20051;-71
2024/01/10 11:04:19;;;;;;;19.95;9.73;;;12.00;1.00;;;;;;5061963;28;20082;-71
2024/01/10 11:06:45;;;;;;;19.75;9.32;;;;;;;;;;5048054;28;20408;-70
2024/01/10 11:09:14;;;;;;;20.50;9.13;;;;;;;;;;5057353;28;20032;-70
2024/01/10 11:11:58;;;;;;;17.83;9.73;;;;;;;;;;5074353;28;20407;-70
2024/01/10 11:14:39;;;;;;;17.30;8.48;;;11.80;1.00;;;;;;5074728;28;20074;-71
2024/01/10 11:17:24;;;;;;;18.95;8.82;;;;;;;;;;5075472;28;20136;-69
2024/01/10 11:19:56;;;;;;;17.05;8.30;;;;;;;;;;5074395;28;20127;-70
2024/01/10 11:22:28;;;;;;;16.17;8.35;;;;;;;;;;5057279;28;20123;-70
2024/01/10 11:24:55;;;;;;;16.00;8.90;;;;;;;;;;5073112;28;20127;-70
2024/01/10 11:27:22;;;;;;;15.82;7.85;;;;;;;;;;5073574;28;20495;-69
2024/01/10 11:29:48;;;;;;;18.40;8.35;;;;;;;;;;5073811;28;20131;-70
2024/01/10 11:32:22;;;;;;;15.00;8.18;;;12.10;1.00;;;;;;5073897;28;20487;-70
2024/01/10 11:34:55;;;;;;;18.73;8.65;;;12.10;1.00;;;;;;5073123;28;20097;-70
2024/01/10 11:37:21;;;;;;;17.47;9.57;;;;;;;;;;5073641;28;20051;-69
2024/01/10 11:39:47;;;;;;;18.30;7.47;;;;;;;;;;5073810;28;20044;-70
2024/01/10 11:42:22;;;;;;;15.32;7.07;;;;;;;;;;5073481;28;20518;-70
2024/01/10 11:44:51;;;;;;;16.42;7.70;;;;;;;;;;5071187;28;20392;-70
2024/01/10 11:47:21;;;;;;;16.80;7.35;;;;;;;;;;5064678;28;20461;-70
2024/01/10 11:49:57;;;;;;;16.08;7.82;;;;;;;;;;5051885;28;20083;-70
2024/01/10 11:52:24;;;;;;;17.02;7.55;;;;;;;;;;5051619;28;20045;-70
2024/01/10 11:54:50;;;;;;;14.85;6.93;;;;;;;;;;5048644;28;20087;-70
2024/01/10 11:57:21;;;;;;;15.13;6.88;;;;;;;;;;5032482;28;20147;-70
2024/01/10 11:59:47;;;;;;;16.05;7.57;;;;;;;;;;5048291;28;20056;-70
2024/01/10 12:02:17;;;;;;;18.65;8.18;;;;;;;;;;5049452;28;20634;-70
2024/01/10 12:04:43;;;;;;;16.45;6.97;;;;;;;;;;5056558;28;20036;-70
2024/01/10 12:07:09;;;;;;;15.60;8.05;;;12.20;1.00;;;;;;5045740;28;20531;-70
2024/01/10 12:09:36;;;;;;;15.05;7.38;;;12.20;1.00;;;;;;5064129;28;20040;-70
2024/01/10 12:12:02;;;;;;;15.57;7.30;;;12.30;1.00;;;;;;5062181;28;20491;-70
2024/01/10 12:14:28;;;;;;;16.83;7.35;;;;;;;;;;5050191;28;20047;-71
2024/01/10 12:16:54;;;;;;;14.05;6.53;;;12.10;1.00;;;;;;5072983;28;20048;-71
2024/01/10 12:19:20;;;;;;;14.68;7.00;;;12.30;1.00;;;;;;5073307;28;20055;-71
2024/01/10 12:21:47;;;;;;;15.20;7.07;;;;;;;;;;5073232;28;20044;-71
2024/01/10 12:24:13;;;;;;;14.40;7.25;;;;;;;;;;5055482;28;20082;-71
2024/01/10 12:26:45;;;;;;;16.42;6.93;;;12.30;1.00;;;;;;5073150;28;20127;-71
2024/01/10 12:29:11;;;;;;;15.18;7.07;;;12.40;1.00;;;;;;5073273;28;20043;-71
2024/01/10 12:31:37;;;;;;;15.13;7.18;;;12.20;1.00;;;;;;5073174;28;20064;-71
2024/01/10 12:34:02;;;;;;;18.67;8.02;;;12.40;1.00;;;;;;5056259;28;20090;-70
2024/01/10 12:36:28;;;;;;;17.25;7.25;;;;;;;;;;5055879;28;20044;-71
2024/01/10 12:38:55;;;;;;;13.98;7.13;;;;;;;;;;5052694;28;20036;-70
2024/01/10 12:41:20;;;;;;;16.15;7.38;;;12.40;1.00;;;;;;5053264;28;20037;-71
2024/01/10 12:43:50;;;;;;;13.63;7.25;;;;;;;;;;5052311;28;20102;-70
2024/01/10 12:46:16;;;;;;;13.10;6.90;;;;;;;;;;5052798;28;20082;-71
2024/01/10 12:48:42;;;;;;;11.57;6.05;;;;;;;;;;5052959;28;20132;-70
2024/01/10 12:51:10;;;;;;;15.32;6.88;;;12.40;1.00;;;;;;5070842;28;20094;-71
2024/01/10 12:53:37;;;;;;;14.93;7.03;;;12.10;1.00;;;;;;5078047;28;20533;-71
2024/01/10 12:56:04;;;;;;;15.38;7.65;;;;;;;;;;5092604;28;20088;-70
2024/01/10 12:58:30;;;;;;;18.30;6.82;;;;;;;;;;5093322;28;20122;-71
2024/01/10 13:00:56;;;;;;;13.68;6.65;;;12.30;1.00;;;;;;5093131;28;20047;-71
2024/01/10 13:03:23;;;;;;;14.48;8.23;;;;;;;;;;5095862;28;20058;-71
2024/01/10 13:05:49;;;;;;;16.40;7.25;;;12.50;1.00;;;;;;5079437;28;20118;-71
2024/01/10 13:08:14;;;;;;;15.02;7.47;;;12.50;1.00;;;;;;5096762;28;20035;-70
2024/01/10 13:10:41;;;;;;;18.25;8.15;;;;;;;;;;5097061;28;20055;-70
2024/01/10 13:13:08;;;;;;;13.27;6.15;;;;;;;;;;5096872;28;20069;-70
2024/01/10 13:15:34;;;;;;;13.40;6.82;;;;;;;;;;5096029;28;20516;-70
2024/01/10 13:18:00;;;;;;;16.70;7.38;;;;;;;;;;5096570;28;20040;-70
2024/01/10 13:20:27;;;;;;;15.88;6.85;;;;;;;;;;5096674;28;20079;-70
2024/01/10 13:22:53;;;;;;;21.35;8.13;;;12.50;1.00;;;;;;5096486;28;20051;-70
2024/01/10 13:25:22;;;;;;;14.93;7.80;;;12.40;1.00;;;;;;5079375;28;20495;-71
2024/01/10 13:27:50;;;;;;;15.85;7.55;;;12.40;1.00;;;;;;5096178;28;20108;-71
2024/01/10 13:30:17;;;;;;;14.43;7.05;;;;;;;;;;5096699;28;20104;-71
2024/01/10 13:32:43;;;;;;;14.70;6.85;;;;;;;;;;5114543;28;20035;-71
2024/01/10 13:35:09;;;;;;;12.60;6.65;;;;;;;;;;5095620;28;20043;-70
2024/01/10 13:37:35;;;;;;;17.20;7.25;;;;;;;;;;5095979;28;20521;-70
2024/01/10 13:40:01;;;;;;;14.50;7.93;;;;;;;;;;5096261;28;20039;-70
2024/01/10 13:42:27;;;;;;;16.30;7.88;;;;;;;;;;5096030;28;20085;-71
2024/01/10 13:44:53;;;;;;;15.05;7.78;;;;;;;;;;5095567;28;20032;-70
2024/01/10 13:47:21;;;;;;;20.17;8.95;;;;;;;;;;5094192;28;20644;-70
2024/01/10 13:49:47;;;;;;;17.52;7.18;;;;;;;;;;5067234;28;20067;-70
2024/01/10 13:52:13;;;;;;;15.50;7.75;;;;;;;;;;5070159;28;20527;-70